createdAt,value
2019-05-16T00:00:52.939Z,101963.57
2019-05-16T00:03:22.937Z,101960.70
2019-05-16T00:05:54.625Z,101958.91
2019-05-16T00:08:24.796Z,101956.02
2019-05-16T00:10:54.825Z,101949.06
2019-05-16T00:13:24.843Z,101949.06
2019-05-16T00:15:54.809Z,101950.98
2019-05-16T00:18:24.886Z,101951.12
2019-05-16T00:20:54.978Z,101945.41
2019-05-16T00:23:24.961Z,101950.06
2019-05-16T00:25:54.991Z,101939.17
2019-05-16T00:28:25.084Z,101935.95
2019-05-16T00:30:55.049Z,101926.32
2019-05-16T00:33:25.065Z,101923.58
2019-05-16T00:36:02.515Z,101921.17
2019-05-16T00:38:27.758Z,101919.25
2019-05-16T00:40:59.110Z,101920.27
2019-05-16T00:43:29.478Z,101912.21
2019-05-16T00:45:59.469Z,101911.00
2019-05-16T00:48:29.505Z,101906.09
2019-05-16T00:50:59.469Z,101903.48
2019-05-16T00:53:29.512Z,101896.48
2019-05-16T00:56:00.084Z,101894.19
2019-05-16T00:58:30.829Z,101891.50
2019-05-16T01:01:00.789Z,101891.81
2019-05-16T01:03:30.860Z,101883.35
2019-05-16T01:06:00.864Z,101881.41
2019-05-16T01:08:30.919Z,101878.25
2019-05-16T01:11:01.236Z,101878.56
2019-05-16T01:13:31.240Z,101882.45
2019-05-16T01:16:01.210Z,101867.72
2019-05-16T01:18:31.197Z,101867.78
2019-05-16T01:21:01.200Z,101869.42
2019-05-16T01:23:31.201Z,101862.70
2019-05-16T01:26:01.175Z,101865.20
2019-05-16T01:28:31.163Z,101860.22
2019-05-16T01:31:01.130Z,101862.37
2019-05-16T01:33:31.121Z,101862.34
2019-05-16T01:36:01.105Z,101854.63
2019-05-16T01:38:31.231Z,101854.35
2019-05-16T01:41:01.185Z,101850.59
2019-05-16T01:43:31.160Z,101851.86
2019-05-16T01:46:01.130Z,101845.50
2019-05-16T01:48:31.127Z,101833.52
2019-05-16T01:51:01.117Z,101843.56
2019-05-16T01:53:31.257Z,101837.30
2019-05-16T01:56:01.277Z,101836.64
2019-05-16T01:58:31.260Z,101830.68
2019-05-16T02:01:11.913Z,101823.48
2019-05-16T02:03:33.322Z,101809.17
2019-05-16T02:06:03.298Z,101812.90
2019-05-16T02:08:33.290Z,101814.15
2019-05-16T02:11:03.244Z,101802.89
2019-05-16T02:13:33.309Z,101797.75
2019-05-16T02:16:03.305Z,101789.82
2019-05-16T02:18:33.296Z,101804.08
2019-05-16T02:21:11.244Z,101798.37
2019-05-16T02:27:20.860Z,101802.22
2019-05-16T02:29:50.907Z,101798.63
2019-05-16T02:32:22.290Z,101797.66
2019-05-16T02:34:52.442Z,101785.68
2019-05-16T02:37:29.161Z,101787.70
2019-05-16T02:39:54.488Z,101788.20
2019-05-16T02:42:24.917Z,101781.25
2019-05-16T02:44:54.990Z,101780.01
2019-05-16T02:47:24.948Z,101785.66
2019-05-16T02:49:55.016Z,101782.51
2019-05-16T02:52:24.983Z,101786.75
2019-05-16T02:54:55.041Z,101783.88
2019-05-16T02:57:25.002Z,101779.34
2019-05-16T02:59:55.095Z,101773.11
2019-05-16T03:02:25.094Z,101773.02
2019-05-16T03:04:55.206Z,101773.31
2019-05-16T03:07:37.723Z,101769.02
2019-05-16T03:10:01.177Z,101833.16
2019-05-16T03:12:31.135Z,101768.03
2019-05-16T03:15:02.675Z,101770.05
2019-05-16T03:17:35.941Z,101766.41
2019-05-16T03:20:06.586Z,101757.98
2019-05-16T03:22:40.610Z,101759.81
2019-05-16T03:25:11.518Z,101759.52
2019-05-16T03:27:41.695Z,101753.19
2019-05-16T03:30:15.798Z,101748.45
2019-05-16T03:32:45.791Z,101749.72
2019-05-16T03:35:16.902Z,101739.41
2019-05-16T03:37:59.349Z,101733.83
2019-05-16T03:40:24.973Z,101740.88
2019-05-16T03:42:54.977Z,101734.55
2019-05-16T03:45:24.979Z,101738.33
2019-05-16T03:47:54.961Z,101730.05
2019-05-16T03:50:24.939Z,101730.05
2019-05-16T03:52:54.924Z,101727.02
2019-05-16T03:55:24.938Z,101723.74
2019-05-16T03:57:54.943Z,101724.77
2019-05-16T04:00:55.352Z,101726.22
2019-05-16T04:03:28.624Z,101724.52
2019-05-16T04:06:00.794Z,101720.83
2019-05-16T04:08:31.010Z,101721.81
2019-05-16T04:11:01.690Z,101719.90
2019-05-16T04:13:32.224Z,101716.12
2019-05-16T04:16:02.249Z,101720.45
2019-05-16T04:18:32.339Z,101722.27
2019-05-16T04:21:02.410Z,101710.87
2019-05-16T04:23:32.387Z,101715.73
2019-05-16T04:26:02.395Z,101710.59
2019-05-16T04:28:32.433Z,101717.16
2019-05-16T04:31:02.521Z,101718.18
2019-05-16T04:33:32.496Z,101710.69
2019-05-16T04:36:02.546Z,101711.34
2019-05-16T04:38:40.723Z,101711.91
2019-05-16T04:41:04.215Z,101713.47
2019-05-16T04:43:34.198Z,101713.80
2019-05-16T04:46:04.297Z,101709.86
2019-05-16T04:48:34.287Z,101712.20
2019-05-16T04:51:04.258Z,101707.64
2019-05-16T04:53:34.262Z,101697.70
2019-05-16T04:56:04.228Z,101702.93
2019-05-16T04:58:34.229Z,101702.39
2019-05-16T05:01:04.193Z,101710.30
2019-05-16T05:03:34.174Z,101697.13
2019-05-16T05:06:04.199Z,101695.14
2019-05-16T05:08:49.357Z,101694.73
2019-05-16T05:11:05.874Z,101692.70
2019-05-16T05:13:35.854Z,101700.69
2019-05-16T05:16:05.826Z,101700.23
2019-05-16T05:18:35.807Z,101698.63
2019-05-16T05:21:05.984Z,101701.66
2019-05-16T05:23:36.013Z,101699.13
2019-05-16T05:26:05.969Z,101698.59
2019-05-16T05:28:35.987Z,101697.59
2019-05-16T05:31:05.950Z,101704.19
2019-05-16T05:33:35.945Z,101700.20
2019-05-16T05:36:05.950Z,101694.91
2019-05-16T05:38:35.949Z,101695.55
2019-05-16T05:41:05.897Z,101684.07
2019-05-16T05:43:35.931Z,101685.84
2019-05-16T05:46:05.917Z,101683.06
2019-05-16T05:48:35.927Z,101677.37
2019-05-16T05:51:05.898Z,101677.37
2019-05-16T05:53:35.893Z,101676.62
2019-05-16T05:56:05.924Z,101667.75
2019-05-16T05:58:36.285Z,101665.81
2019-05-16T06:01:06.246Z,101661.34
2019-05-16T06:03:36.242Z,101661.34
2019-05-16T06:06:06.201Z,101651.92
2019-05-16T06:08:36.213Z,101653.86
2019-05-16T06:11:06.184Z,101659.65
2019-05-16T06:13:36.165Z,101659.35
2019-05-16T06:16:06.169Z,101650.55
2019-05-16T06:18:36.158Z,101647.78
2019-05-16T06:21:06.165Z,101653.41
2019-05-16T06:23:36.172Z,101654.66
2019-05-16T06:26:06.163Z,101653.86
2019-05-16T06:28:36.169Z,101650.72
2019-05-16T06:31:06.172Z,101651.73
2019-05-16T06:33:36.161Z,101656.09
2019-05-16T06:36:06.247Z,101655.75
2019-05-16T06:38:36.252Z,101643.08
2019-05-16T06:41:06.229Z,101648.19
2019-05-16T06:43:36.247Z,101646.42
2019-05-16T06:46:06.230Z,101638.02
2019-05-16T06:48:36.224Z,101625.23
2019-05-16T06:51:06.201Z,101625.23
2019-05-16T06:53:36.223Z,101633.83
2019-05-16T06:56:06.172Z,101632.33
2019-05-16T06:58:45.688Z,101621.00
2019-05-16T07:01:10.387Z,101624.55
2019-05-16T07:03:40.092Z,101624.06
2019-05-16T07:06:26.245Z,101612.57
2019-05-16T07:08:41.972Z,101612.57
2019-05-16T07:11:11.947Z,101609.28
2019-05-16T07:13:41.951Z,101618.30
2019-05-16T07:16:11.967Z,101615.90
2019-05-16T07:18:41.964Z,101616.59
2019-05-16T07:21:11.952Z,101615.53
2019-05-16T07:23:41.967Z,101615.53
2019-05-16T07:26:11.939Z,101613.64
2019-05-16T07:28:41.902Z,101608.66
2019-05-16T07:31:17.868Z,101614.09
2019-05-16T07:33:43.545Z,101617.09
2019-05-16T07:36:15.899Z,101616.95
2019-05-16T07:38:45.378Z,101601.89
2019-05-16T07:41:15.394Z,101596.48
2019-05-16T07:43:45.352Z,101603.58
2019-05-16T07:46:15.342Z,101582.59
2019-05-16T07:48:45.307Z,101590.64
2019-05-16T07:51:15.298Z,101586.48
2019-05-16T07:53:45.261Z,101586.13
2019-05-16T07:56:15.241Z,101577.75
2019-05-16T07:58:45.193Z,101589.98
2019-05-16T08:01:15.188Z,101588.41
2019-05-16T08:03:45.127Z,101589.01
2019-05-16T08:06:15.124Z,101589.01
2019-05-16T08:08:45.096Z,101579.59
2019-05-16T08:11:15.072Z,101579.59
2019-05-16T08:13:45.076Z,101576.66
2019-05-16T08:16:15.073Z,101571.41
2019-05-16T08:18:45.378Z,101562.96
2019-05-16T08:21:16.952Z,101562.64
2019-05-16T08:23:47.124Z,101558.73
2019-05-16T08:26:21.519Z,101561.26
2019-05-16T08:28:50.288Z,101552.27
2019-05-16T08:31:21.364Z,101546.61
2019-05-16T08:33:54.761Z,101554.28
2019-05-16T08:36:23.389Z,101551.67
2019-05-16T08:38:53.377Z,101551.43
2019-05-16T08:41:23.407Z,101540.27
2019-05-16T08:43:53.683Z,101541.36
2019-05-16T08:46:23.741Z,101530.20
2019-05-16T08:48:54.400Z,101527.02
2019-05-16T08:51:24.478Z,101518.11
2019-05-16T08:53:54.443Z,101518.11
2019-05-16T08:56:24.493Z,101511.48
2019-05-16T08:58:54.591Z,101505.15
2019-05-16T09:01:24.622Z,101505.61
2019-05-16T09:03:54.587Z,101498.02
2019-05-16T09:06:24.644Z,101496.04
2019-05-16T09:08:58.645Z,101489.66
2019-05-16T09:11:35.036Z,101491.92
2019-05-16T09:13:58.033Z,101490.63
2019-05-16T09:16:28.049Z,101486.41
2019-05-16T09:18:58.065Z,101484.00
2019-05-16T09:21:28.090Z,101475.82
2019-05-16T09:23:58.128Z,101464.66
2019-05-16T09:26:28.441Z,101466.30
2019-05-16T09:28:58.453Z,101462.94
2019-05-16T09:31:28.559Z,101468.78
2019-05-16T09:33:58.551Z,101456.45
2019-05-16T09:36:28.573Z,101456.42
2019-05-16T09:38:58.502Z,101456.54
2019-05-16T09:41:46.264Z,101452.44
2019-05-16T09:44:00.286Z,101458.42
2019-05-16T09:46:30.285Z,101450.77
2019-05-16T09:49:15.710Z,101454.26
2019-05-16T09:51:32.002Z,101456.59
2019-05-16T09:54:02.099Z,101453.32
2019-05-16T09:56:32.073Z,101439.12
2019-05-16T09:59:02.083Z,101441.44
2019-05-16T10:01:32.075Z,101439.16
2019-05-16T10:04:02.100Z,101426.58
2019-05-16T10:06:32.100Z,101431.38
2019-05-16T10:09:02.111Z,101426.14
2019-05-16T10:11:32.235Z,101422.55
2019-05-16T10:14:02.161Z,101421.30
2019-05-16T10:16:32.302Z,101416.30
2019-05-16T10:19:02.325Z,101412.63
2019-05-16T10:21:32.340Z,101418.38
2019-05-16T10:24:02.313Z,101407.56
2019-05-16T10:26:32.316Z,101405.08
2019-05-16T10:29:02.297Z,101392.03
2019-05-16T10:31:44.892Z,101399.63
2019-05-16T10:34:04.090Z,101400.53
2019-05-16T10:36:37.301Z,101393.43
2019-05-16T10:39:07.910Z,101381.58
2019-05-16T10:41:38.034Z,101381.58
2019-05-16T10:44:08.043Z,101381.34
2019-05-16T10:46:38.010Z,101378.22
2019-05-16T10:49:07.999Z,101372.92
2019-05-16T10:51:38.015Z,101379.85
2019-05-16T10:54:13.795Z,101370.75
2019-05-16T10:56:40.714Z,101373.60
2019-05-16T10:59:50.349Z,101371.77
2019-05-16T11:01:42.415Z,101374.94
2019-05-16T11:04:27.929Z,101364.48
2019-05-16T11:06:46.487Z,101367.23
2019-05-16T11:09:17.362Z,101370.23
2019-05-16T11:11:47.818Z,101358.20
2019-05-16T11:14:17.899Z,101361.25
2019-05-16T11:16:47.977Z,101368.13
2019-05-16T11:19:24.205Z,101370.19
2019-05-16T11:21:49.731Z,101377.59
2019-05-16T11:24:19.784Z,101381.20
2019-05-16T11:26:49.791Z,101379.40
2019-05-16T11:29:19.839Z,101373.79
2019-05-16T11:31:49.810Z,101361.34
2019-05-16T11:34:19.828Z,101377.47
2019-05-16T11:36:49.845Z,101363.19
2019-05-16T11:39:20.193Z,101360.48
2019-05-16T11:41:50.266Z,101355.80
2019-05-16T11:44:20.275Z,101344.58
2019-05-16T11:46:50.320Z,101348.42
2019-05-16T11:49:20.356Z,101336.83
2019-05-16T11:51:50.332Z,101351.29
2019-05-16T11:54:20.360Z,101339.41
2019-05-16T11:56:50.341Z,101335.35
2019-05-16T11:59:20.354Z,101329.74
2019-05-16T12:01:50.394Z,101327.95
2019-05-16T12:04:20.398Z,101322.74
2019-05-16T12:06:50.382Z,101312.08
2019-05-16T12:09:20.386Z,101311.27
2019-05-16T12:11:59.702Z,101304.63
2019-05-16T12:14:22.217Z,101306.80
2019-05-16T12:16:52.221Z,101308.51
2019-05-16T12:19:22.256Z,101301.34
2019-05-16T12:21:52.256Z,101285.02
2019-05-16T12:24:33.229Z,101295.30
2019-05-16T12:26:54.012Z,101297.98
2019-05-16T12:29:24.033Z,101297.17
2019-05-16T12:31:58.624Z,101295.77
2019-05-16T12:34:25.703Z,101284.25
2019-05-16T12:36:56.579Z,101282.70
2019-05-16T12:39:26.934Z,101280.52
2019-05-16T12:41:59.146Z,101276.19
2019-05-16T12:44:28.680Z,101276.67
2019-05-16T12:46:58.727Z,101276.27
2019-05-16T12:49:28.827Z,101264.87
2019-05-16T12:51:59.326Z,101263.47
2019-05-16T12:54:29.317Z,101257.39
2019-05-16T12:56:59.333Z,101249.63
2019-05-16T12:59:29.319Z,101240.13
2019-05-16T13:01:59.280Z,101237.72
2019-05-16T13:04:29.293Z,101221.09
2019-05-16T13:06:59.303Z,101218.50
2019-05-16T13:09:29.294Z,101210.18
2019-05-16T13:11:59.296Z,101203.62
2019-05-16T13:14:29.288Z,101206.81
2019-05-16T13:16:59.284Z,101192.83
2019-05-16T13:19:33.411Z,101188.05
2019-05-16T13:22:01.036Z,101177.41
2019-05-16T13:24:30.987Z,101178.30
2019-05-16T13:27:01.099Z,101173.76
2019-05-16T13:29:31.089Z,101165.15
2019-05-16T13:32:01.123Z,101166.50
2019-05-16T13:34:31.088Z,101166.50
2019-05-16T13:37:01.089Z,101167.38
2019-05-16T13:39:31.050Z,101159.64
2019-05-16T13:42:01.047Z,101137.45
2019-05-16T13:44:31.030Z,101150.56
2019-05-16T13:47:01.018Z,101142.61
2019-05-16T13:49:31.012Z,101137.74
2019-05-16T13:52:01.008Z,101137.74
2019-05-16T13:54:30.973Z,101139.41
2019-05-16T13:57:01.040Z,101129.19
2019-05-16T13:59:31.115Z,101116.03
2019-05-16T14:02:01.109Z,101131.00
2019-05-16T14:04:31.090Z,101124.31
2019-05-16T14:07:01.095Z,101125.48
2019-05-16T14:09:31.074Z,101128.05
2019-05-16T14:12:03.209Z,101128.48
2019-05-16T14:14:38.075Z,101120.48
2019-05-16T14:17:11.933Z,101112.03
2019-05-16T14:19:37.565Z,101108.77
2019-05-16T14:22:07.855Z,101104.63
2019-05-16T14:24:37.748Z,101106.56
2019-05-16T14:27:07.762Z,101106.56
2019-05-16T14:29:37.973Z,101100.02
2019-05-16T14:32:10.295Z,101094.63
2019-05-16T14:34:39.675Z,101094.63
2019-05-16T14:37:09.688Z,101094.70
2019-05-16T14:39:39.673Z,101100.04
2019-05-16T14:42:09.833Z,101098.48
2019-05-16T14:44:59.770Z,101090.56
2019-05-16T14:47:11.753Z,101086.25
2019-05-16T14:49:41.819Z,101087.13
2019-05-16T14:52:11.815Z,101081.81
2019-05-16T14:54:41.818Z,101071.13
2019-05-16T14:57:12.012Z,101072.29
2019-05-16T14:59:42.051Z,101067.85
2019-05-16T15:02:12.055Z,101075.53
2019-05-16T15:04:42.031Z,101074.16
2019-05-16T15:07:12.051Z,101070.91
2019-05-16T15:09:42.055Z,101074.45
2019-05-16T15:12:12.147Z,101067.53
2019-05-16T15:14:42.152Z,101074.58
2019-05-16T15:17:12.165Z,101070.67
2019-05-16T15:19:42.154Z,101076.17
2019-05-16T15:22:12.270Z,101078.22
2019-05-16T15:24:42.247Z,101075.98
2019-05-16T15:27:16.858Z,101066.27
2019-05-16T15:29:48.160Z,101072.89
2019-05-16T15:32:17.979Z,101055.79
2019-05-16T15:34:48.239Z,101058.64
2019-05-16T15:37:18.204Z,101058.64
2019-05-16T15:39:48.211Z,101056.90
2019-05-16T15:42:18.354Z,101056.90
2019-05-16T15:44:48.345Z,101065.31
2019-05-16T15:47:18.383Z,101064.07
2019-05-16T15:49:48.353Z,101059.05
2019-05-16T15:52:18.467Z,101057.94
2019-05-16T15:54:49.229Z,101064.30
2019-05-16T15:57:19.354Z,101058.48
2019-05-16T15:59:49.340Z,101058.30
2019-05-16T16:02:19.343Z,101059.39
2019-05-16T16:04:49.339Z,101059.64
2019-05-16T16:07:19.400Z,101061.84
2019-05-16T16:09:49.463Z,101063.71
2019-05-16T16:12:19.483Z,101063.71
2019-05-16T16:14:49.468Z,101064.55
2019-05-16T16:17:19.541Z,101061.34
2019-05-16T16:19:49.554Z,101064.19
2019-05-16T16:22:19.550Z,101063.20
2019-05-16T16:24:49.550Z,101063.42
2019-05-16T16:27:19.541Z,101056.88
2019-05-16T16:29:49.561Z,101068.50
2019-05-16T16:32:19.562Z,101061.94
2019-05-16T16:34:49.562Z,101060.95
2019-05-16T16:37:19.524Z,101061.75
2019-05-16T16:39:49.548Z,101057.02
2019-05-16T16:42:19.538Z,101061.58
2019-05-16T16:44:50.628Z,101062.20
2019-05-16T16:47:20.593Z,101065.70
2019-05-16T16:49:50.686Z,101070.08
2019-05-16T16:52:20.724Z,101065.88
2019-05-16T16:54:50.744Z,101063.17
2019-05-16T16:57:20.722Z,101062.82
2019-05-16T16:59:50.764Z,101062.61
2019-05-16T17:02:20.750Z,101070.44
2019-05-16T17:04:51.973Z,101065.09
2019-05-16T17:07:22.024Z,101068.36
2019-05-16T17:09:52.047Z,101070.73
2019-05-16T17:12:22.047Z,101068.88
2019-05-16T17:14:52.052Z,101076.60
2019-05-16T17:17:22.058Z,101070.86
2019-05-16T17:19:52.126Z,101066.89
2019-05-16T17:22:22.137Z,101065.84
2019-05-16T17:24:52.155Z,101066.81
2019-05-16T17:27:22.139Z,101062.34
2019-05-16T17:29:52.230Z,101065.62
2019-05-16T17:32:22.223Z,101066.36
2019-05-16T17:34:52.337Z,101057.30
2019-05-16T17:37:22.316Z,101067.17
2019-05-16T17:39:52.321Z,101062.91
2019-05-16T17:42:22.310Z,101066.93
2019-05-16T17:44:52.417Z,101062.02
2019-05-16T17:47:22.427Z,101060.00
2019-05-16T17:49:52.433Z,101053.13
2019-05-16T17:52:22.400Z,101066.93
2019-05-16T17:54:53.390Z,101053.75
2019-05-16T17:57:23.471Z,101064.75
2019-05-16T17:59:53.478Z,101064.47
2019-05-16T18:02:23.451Z,101067.37
2019-05-16T18:04:53.449Z,101060.42
2019-05-16T18:07:23.462Z,101066.20
2019-05-16T18:09:53.549Z,101064.55
2019-05-16T18:12:23.566Z,101074.77
2019-05-16T18:14:53.577Z,101069.50
2019-05-16T18:17:23.556Z,101066.68
2019-05-16T18:19:53.596Z,101074.06
2019-05-16T18:22:23.585Z,101066.16
2019-05-16T18:24:53.602Z,101068.27
2019-05-16T18:27:23.593Z,101070.87
2019-05-16T18:29:53.595Z,101074.87
2019-05-16T18:32:23.606Z,101076.36
2019-05-16T18:34:53.665Z,101077.70
2019-05-16T18:37:23.732Z,101073.89
2019-05-16T18:39:53.748Z,101077.04
2019-05-16T18:42:23.801Z,101081.87
2019-05-16T18:44:53.816Z,101085.36
2019-05-16T18:47:23.822Z,101082.57
2019-05-16T18:49:53.855Z,101081.87
2019-05-16T18:52:23.870Z,101080.76
2019-05-16T18:54:53.876Z,101088.52
2019-05-16T18:57:23.870Z,101080.02
2019-05-16T18:59:53.858Z,101078.91
2019-05-16T19:02:23.949Z,101071.66
2019-05-16T19:04:53.951Z,101071.66
2019-05-16T19:07:23.934Z,101078.05
2019-05-16T19:09:53.927Z,101075.12
2019-05-16T19:12:26.193Z,101086.80
2019-05-16T19:14:57.097Z,101089.68
2019-05-16T19:17:27.675Z,101078.11
2019-05-16T19:19:57.859Z,101082.19
2019-05-16T19:22:27.883Z,101084.05
2019-05-16T19:24:57.915Z,101083.30
2019-05-16T19:27:27.912Z,101082.62
2019-05-16T19:29:57.880Z,101082.56
2019-05-16T19:32:27.881Z,101084.41
2019-05-16T19:34:57.868Z,101089.11
2019-05-16T19:37:27.955Z,101086.56
2019-05-16T19:39:58.003Z,101086.56
2019-05-16T19:42:29.861Z,101088.03
2019-05-16T19:44:59.701Z,101076.48
2019-05-16T19:47:36.904Z,101084.23
2019-05-16T19:50:01.423Z,101080.56
2019-05-16T19:52:31.434Z,101079.35
2019-05-16T19:55:01.413Z,101079.35
2019-05-16T19:57:31.435Z,101074.37
2019-05-16T20:00:01.441Z,101075.61
2019-05-16T20:02:31.482Z,101077.19
2019-05-16T20:05:01.489Z,101079.70
2019-05-16T20:07:31.496Z,101081.41
2019-05-16T20:10:01.486Z,101084.11
2019-05-16T20:12:31.546Z,101072.26
2019-05-16T20:15:08.072Z,101072.26
2019-05-16T20:17:33.375Z,101075.98
2019-05-16T20:20:03.412Z,101072.91
2019-05-16T20:22:33.779Z,101073.72
2019-05-16T20:25:04.041Z,101072.42
2019-05-16T20:27:36.527Z,101072.42
2019-05-16T20:30:06.726Z,101076.52
2019-05-16T20:32:37.378Z,101076.52
2019-05-16T20:35:08.859Z,101074.00
2019-05-16T20:37:39.348Z,101074.00
2019-05-16T20:40:12.421Z,101069.38
2019-05-16T20:42:41.195Z,101069.69
2019-05-16T20:45:12.124Z,101067.09
2019-05-16T20:47:42.202Z,101067.09
2019-05-16T20:50:12.913Z,101062.03
2019-05-16T20:52:42.987Z,101065.78
2019-05-16T20:55:13.811Z,101072.33
2019-05-16T20:57:46.102Z,101076.12
2019-05-16T21:00:17.561Z,101065.95
2019-05-16T21:02:49.482Z,101069.33
2019-05-16T21:05:19.018Z,101067.53
2019-05-16T21:07:49.031Z,101067.59
2019-05-16T21:10:19.920Z,101076.49
2019-05-16T21:12:49.921Z,101066.38
2019-05-16T21:15:19.885Z,101062.16
2019-05-16T21:17:49.886Z,101050.77
2019-05-16T21:20:19.927Z,101057.42
2019-05-16T21:22:49.898Z,101046.92
2019-05-16T21:25:19.911Z,101047.36
2019-05-16T21:27:49.912Z,101046.02
2019-05-16T21:30:20.083Z,101050.56
2019-05-16T21:32:50.131Z,101042.16
2019-05-16T21:35:20.244Z,101041.38
2019-05-16T21:37:50.422Z,101037.84
2019-05-16T21:40:20.512Z,101036.62
2019-05-16T21:42:50.672Z,101034.28
2019-05-16T21:45:20.737Z,101025.59
2019-05-16T21:47:50.711Z,101030.34
2019-05-16T21:50:20.788Z,101012.61
2019-05-16T21:52:50.833Z,101022.30
2019-05-16T21:55:20.834Z,101016.20
2019-05-16T21:57:50.893Z,101016.20
2019-05-16T22:00:27.332Z,101011.88
2019-05-16T22:02:57.447Z,101009.61
2019-05-16T22:05:27.395Z,101015.38
2019-05-16T22:07:57.526Z,101005.48
2019-05-16T22:10:27.843Z,101007.91
2019-05-16T22:12:57.904Z,101003.84
2019-05-16T22:15:28.152Z,100997.70
2019-05-16T22:17:58.402Z,100997.70
2019-05-16T22:20:28.599Z,100995.28
2019-05-16T22:22:58.760Z,100996.64
2019-05-16T22:25:28.837Z,100990.73
2019-05-16T22:27:58.834Z,100990.73
2019-05-16T22:30:28.844Z,100992.46
2019-05-16T22:32:58.812Z,100992.46
2019-05-16T22:35:28.826Z,100988.77
2019-05-16T22:37:59.515Z,100982.55
2019-05-16T22:40:29.630Z,100974.58
2019-05-16T22:42:59.614Z,100966.94
2019-05-16T22:45:29.601Z,100965.64
2019-05-16T22:47:59.595Z,100968.59
2019-05-16T22:50:29.584Z,100960.52
2019-05-16T22:52:59.545Z,100966.14
2019-05-16T22:55:29.539Z,100960.52
2019-05-16T22:57:59.503Z,100960.52
2019-05-16T23:00:31.200Z,100967.27
2019-05-16T23:03:01.183Z,100960.91
2019-05-16T23:05:31.182Z,100951.93
2019-05-16T23:08:05.800Z,100951.93
2019-05-16T23:10:32.916Z,100952.17
2019-05-16T23:13:02.900Z,100953.32
2019-05-16T23:15:32.894Z,100953.22
2019-05-16T23:18:02.874Z,100939.63
2019-05-16T23:20:32.898Z,100939.46
2019-05-16T23:23:02.869Z,100944.55
2019-05-16T23:25:32.914Z,100940.77
2019-05-16T23:28:02.881Z,100944.74
2019-05-16T23:30:32.872Z,100948.36
2019-05-16T23:33:02.831Z,100927.27
2019-05-16T23:35:32.834Z,100940.39
2019-05-16T23:38:14.680Z,100934.22
2019-05-16T23:40:34.482Z,100935.98
2019-05-16T23:43:04.473Z,100933.98
2019-05-16T23:45:34.466Z,100939.88
2019-05-16T23:48:09.495Z,100925.22
2019-05-16T23:50:36.729Z,100924.28
2019-05-16T23:53:07.559Z,100914.75
2019-05-16T23:55:37.673Z,100913.11
2019-05-16T23:58:07.627Z,100906.00
